createdAt,value
2022-12-20T00:02:10.434Z,18.63
2022-12-20T00:04:38.445Z,19.83
2022-12-20T00:07:06.369Z,19.07
2022-12-20T00:09:34.211Z,19.80
2022-12-20T00:12:02.106Z,18.13
2022-12-20T00:14:31.338Z,19.97
2022-12-20T00:16:59.219Z,16.53
2022-12-20T00:19:27.136Z,18.83
2022-12-20T00:21:55.159Z,16.67
2022-12-20T00:24:26.273Z,16.27
2022-12-20T00:26:54.611Z,17.90
2022-12-20T00:29:22.732Z,15.13
2022-12-20T00:31:52.338Z,16.90
2022-12-20T00:34:20.952Z,17.60
2022-12-20T00:36:48.949Z,15.80
2022-12-20T00:39:17.195Z,16.17
2022-12-20T00:41:45.747Z,16.27
2022-12-20T00:44:15.055Z,15.60
2022-12-20T00:46:43.010Z,20.03
2022-12-20T00:49:12.361Z,14.63
2022-12-20T00:51:40.399Z,15.27
2022-12-20T00:54:08.359Z,17.30
2022-12-20T00:56:36.278Z,17.73
2022-12-20T00:59:04.220Z,17.50
2022-12-20T01:01:34.749Z,16.90
2022-12-20T01:04:03.453Z,15.20
2022-12-20T01:06:33.898Z,14.97
2022-12-20T01:09:02.099Z,17.07
2022-12-20T01:11:31.983Z,15.83
2022-12-20T01:14:03.150Z,13.87
2022-12-20T01:16:33.242Z,16.07
2022-12-20T01:19:01.975Z,15.17
2022-12-20T01:21:30.237Z,15.60
2022-12-20T01:23:59.845Z,16.70
2022-12-20T01:26:30.286Z,15.63
2022-12-20T01:28:59.907Z,17.63
2022-12-20T01:31:29.729Z,17.67
2022-12-20T01:33:58.522Z,16.60
2022-12-20T01:36:29.303Z,16.53
2022-12-20T01:39:01.028Z,14.90
2022-12-20T01:41:30.669Z,17.77
2022-12-20T01:44:00.802Z,16.20
2022-12-20T01:46:31.441Z,16.63
2022-12-20T01:49:05.882Z,17.13
2022-12-20T01:51:37.554Z,15.10
2022-12-20T01:54:12.749Z,16.87
2022-12-20T01:56:42.540Z,15.07
2022-12-20T01:59:10.623Z,15.90
2022-12-20T02:01:38.654Z,18.03
2022-12-20T02:04:06.754Z,14.20
2022-12-20T02:06:34.751Z,16.33
2022-12-20T02:09:04.678Z,16.90
2022-12-20T02:11:55.412Z,17.27
2022-12-20T02:14:37.444Z,17.33
2022-12-20T02:17:17.838Z,15.20
2022-12-20T02:20:17.755Z,15.27
2022-12-20T02:23:07.982Z,15.73
2022-12-20T02:25:47.413Z,16.30
2022-12-20T02:28:39.373Z,15.43
2022-12-20T02:31:12.700Z,14.60
2022-12-20T02:33:44.492Z,17.53
2022-12-20T02:36:12.461Z,15.27
2022-12-20T02:38:40.418Z,13.33
2022-12-20T02:41:14.910Z,14.40
2022-12-20T02:44:02.604Z,15.73
2022-12-20T02:46:33.580Z,13.57
2022-12-20T02:49:05.565Z,13.90
2022-12-20T02:51:34.289Z,12.97
2022-12-20T02:54:03.359Z,12.70
2022-12-20T02:56:35.920Z,12.77
2022-12-20T02:59:10.788Z,11.07
2022-12-20T03:01:45.978Z,9.87
2022-12-20T03:04:15.390Z,9.27
2022-12-20T03:06:57.856Z,10.20
2022-12-20T03:09:25.790Z,9.73
2022-12-20T03:11:54.611Z,8.93
2022-12-20T03:14:22.937Z,10.20
2022-12-20T03:16:54.168Z,9.13
2022-12-20T03:19:22.255Z,8.53
2022-12-20T03:21:50.128Z,8.33
2022-12-20T03:24:18.107Z,9.67
2022-12-20T03:26:46.150Z,10.03
2022-12-20T03:29:14.280Z,9.30
2022-12-20T03:31:42.545Z,8.20
2022-12-20T03:34:11.826Z,8.03
2022-12-20T03:36:40.273Z,8.50
2022-12-20T03:39:08.258Z,8.77
2022-12-20T03:41:39.622Z,8.47
2022-12-20T03:44:09.465Z,9.30
2022-12-20T03:46:37.672Z,7.50
2022-12-20T03:49:06.260Z,7.50
2022-12-20T03:51:39.947Z,8.80
2022-12-20T03:54:08.237Z,9.10
2022-12-20T03:56:53.688Z,12.67
2022-12-20T03:59:21.832Z,13.03
2022-12-20T04:01:50.934Z,12.13
2022-12-20T04:04:18.915Z,13.83
2022-12-20T04:06:48.319Z,11.30
2022-12-20T04:09:17.225Z,13.70
2022-12-20T04:11:50.246Z,12.33
2022-12-20T04:14:18.143Z,14.17
2022-12-20T04:16:46.238Z,12.13
2022-12-20T04:19:15.174Z,13.37
2022-12-20T04:21:48.468Z,13.17
2022-12-20T04:24:18.936Z,15.03
2022-12-20T04:26:53.785Z,12.90
2022-12-20T04:29:21.679Z,11.60
2022-12-20T04:31:50.603Z,13.53
2022-12-20T04:34:19.181Z,11.93
2022-12-20T04:36:48.585Z,14.00
2022-12-20T04:39:25.132Z,14.97
2022-12-20T04:42:18.961Z,13.37
2022-12-20T04:44:47.350Z,13.80
2022-12-20T04:47:18.753Z,13.03
2022-12-20T04:49:47.073Z,13.13
2022-12-20T04:52:34.126Z,12.57
2022-12-20T04:55:02.195Z,12.63
2022-12-20T04:57:32.974Z,13.33
2022-12-20T05:00:01.927Z,13.50
2022-12-20T05:02:30.143Z,12.37
2022-12-20T05:05:10.255Z,13.90
2022-12-20T05:07:45.838Z,12.87
2022-12-20T05:10:13.915Z,13.33
2022-12-20T05:12:43.065Z,11.43
2022-12-20T05:15:16.985Z,11.83
2022-12-20T05:17:45.713Z,12.50
2022-12-20T05:20:14.848Z,12.43
2022-12-20T05:23:03.866Z,13.00
2022-12-20T05:25:52.678Z,13.77
2022-12-20T05:28:20.809Z,20.90
2022-12-20T05:30:48.712Z,13.23
2022-12-20T05:33:16.931Z,19.70
2022-12-20T05:35:45.232Z,25.67
2022-12-20T05:38:17.165Z,25.97
2022-12-20T05:40:48.743Z,26.57
2022-12-20T05:43:19.204Z,16.60
2022-12-20T05:45:48.443Z,15.70
2022-12-20T05:48:20.419Z,18.60
2022-12-20T05:50:49.397Z,31.60
2022-12-20T05:53:47.686Z,28.13
2022-12-20T05:56:16.376Z,16.70
2022-12-20T05:58:44.294Z,18.40
2022-12-20T06:01:12.241Z,21.47
2022-12-20T06:03:41.532Z,22.87
2022-12-20T06:06:15.721Z,20.07
2022-12-20T06:08:48.857Z,15.87
2022-12-20T06:11:36.643Z,12.73
2022-12-20T06:14:09.006Z,13.53
2022-12-20T06:16:40.655Z,23.07
2022-12-20T06:19:13.555Z,21.87
2022-12-20T06:21:46.049Z,51.67
2022-12-20T06:24:17.340Z,57.67
2022-12-20T06:26:46.760Z,31.97
2022-12-20T06:29:17.345Z,13.60
2022-12-20T06:31:51.870Z,23.00
2022-12-20T06:34:20.429Z,15.83
2022-12-20T06:36:48.418Z,13.10
2022-12-20T06:39:24.360Z,16.87
2022-12-20T06:42:10.554Z,46.30
2022-12-20T06:44:40.547Z,19.33
2022-12-20T06:47:08.536Z,23.17
2022-12-20T06:49:36.582Z,15.93
2022-12-20T06:52:11.716Z,22.40
2022-12-20T06:54:48.414Z,26.30
2022-12-20T06:57:16.802Z,24.00
2022-12-20T06:59:48.038Z,25.50
2022-12-20T07:02:16.320Z,23.73
2022-12-20T07:04:44.424Z,19.80
2022-12-20T07:07:13.659Z,17.90
2022-12-20T07:09:42.758Z,21.50
2022-12-20T07:12:12.292Z,18.30
2022-12-20T07:14:40.233Z,22.37
2022-12-20T07:17:08.657Z,14.93
2022-12-20T07:19:37.212Z,15.20
2022-12-20T07:22:05.556Z,15.00
2022-12-20T07:24:33.813Z,19.97
2022-12-20T07:27:02.048Z,16.37
2022-12-20T07:29:31.460Z,52.53
2022-12-20T07:31:59.433Z,71.77
2022-12-20T07:34:27.354Z,56.60
2022-12-20T07:36:55.271Z,36.13
2022-12-20T07:39:23.155Z,29.67
2022-12-20T07:41:54.065Z,23.67
2022-12-20T07:44:24.075Z,23.33
2022-12-20T07:46:53.493Z,25.37
2022-12-20T07:49:22.028Z,26.60
2022-12-20T07:51:53.495Z,23.83
2022-12-20T07:54:25.498Z,21.60
2022-12-20T07:56:55.920Z,22.57
2022-12-20T07:59:27.668Z,21.97
2022-12-20T08:02:03.950Z,21.00
2022-12-20T08:04:34.190Z,25.83
2022-12-20T08:07:03.507Z,22.10
2022-12-20T08:09:38.403Z,23.67
2022-12-20T08:12:08.279Z,22.60
2022-12-20T08:14:36.421Z,19.67
2022-12-20T08:17:05.780Z,21.73
2022-12-20T08:19:33.707Z,15.00
2022-12-20T08:22:02.276Z,15.40
2022-12-20T08:24:30.347Z,17.13
2022-12-20T08:26:58.937Z,12.93
2022-12-20T08:29:27.216Z,10.60
2022-12-20T08:31:55.612Z,13.87
2022-12-20T08:34:25.178Z,23.50
2022-12-20T08:36:53.167Z,22.83
2022-12-20T08:39:21.119Z,26.00
2022-12-20T08:41:49.238Z,24.07
2022-12-20T08:44:17.131Z,35.07
2022-12-20T08:46:45.260Z,30.87
2022-12-20T08:49:13.991Z,27.27
2022-12-20T08:51:43.608Z,23.37
2022-12-20T08:54:11.545Z,18.57
2022-12-20T08:56:39.487Z,14.47
2022-12-20T08:59:07.379Z,14.53
2022-12-20T09:01:35.555Z,11.50
2022-12-20T09:04:04.646Z,15.27
2022-12-20T09:06:32.716Z,13.57
2022-12-20T09:09:02.314Z,13.47
2022-12-20T09:11:30.815Z,14.20
2022-12-20T09:14:00.195Z,14.10
2022-12-20T09:16:30.488Z,15.17
2022-12-20T09:19:05.487Z,15.47
2022-12-20T09:21:35.352Z,13.77
2022-12-20T09:24:06.136Z,14.73
2022-12-20T09:26:35.250Z,15.03
2022-12-20T09:29:03.707Z,13.07
2022-12-20T09:31:31.811Z,14.90
2022-12-20T09:34:01.011Z,8.13
2022-12-20T09:36:30.186Z,4.67
2022-12-20T09:38:58.517Z,4.13
2022-12-20T09:41:32.743Z,3.20
2022-12-20T09:44:05.008Z,3.83
2022-12-20T09:46:33.265Z,6.40
2022-12-20T09:49:01.461Z,7.70
2022-12-20T09:51:53.541Z,30.13
2022-12-20T09:54:30.399Z,9.20
2022-12-20T09:57:08.381Z,5.13
2022-12-20T09:59:43.245Z,4.03
2022-12-20T10:02:56.554Z,4.53
2022-12-20T10:05:16.990Z,4.93
2022-12-20T10:07:54.894Z,6.63
2022-12-20T10:10:50.525Z,5.00
2022-12-20T10:13:28.780Z,6.00
2022-12-20T10:16:05.967Z,3.17
2022-12-20T10:18:48.109Z,5.70
2022-12-20T10:21:22.197Z,6.33
2022-12-20T10:24:00.999Z,14.03
2022-12-20T10:26:30.575Z,14.57
2022-12-20T10:28:59.819Z,15.50
2022-12-20T10:31:28.993Z,22.07
2022-12-20T10:33:57.768Z,38.20
2022-12-20T10:36:28.203Z,27.07
2022-12-20T10:38:57.888Z,14.73
2022-12-20T10:41:28.065Z,13.20
2022-12-20T10:44:00.920Z,13.43
2022-12-20T10:46:41.474Z,10.77
2022-12-20T10:49:34.322Z,11.20
2022-12-20T10:52:05.343Z,13.83
2022-12-20T10:54:37.140Z,23.10
2022-12-20T10:57:19.461Z,20.93
2022-12-20T10:59:52.532Z,20.47
2022-12-20T11:02:36.749Z,38.97
2022-12-20T11:05:23.918Z,39.47
2022-12-20T11:10:46.565Z,35.80
2022-12-20T11:13:24.020Z,30.40
2022-12-20T11:15:57.307Z,37.47
2022-12-20T11:18:38.471Z,37.23
2022-12-20T11:21:21.532Z,32.03
2022-12-20T11:24:01.918Z,16.50
2022-12-20T11:26:44.671Z,22.90
2022-12-20T11:29:29.758Z,15.67
2022-12-20T11:32:10.648Z,19.23
2022-12-20T11:34:47.309Z,14.50
2022-12-20T11:37:20.203Z,14.33
2022-12-20T11:40:07.354Z,16.03
2022-12-20T11:42:53.563Z,11.77
2022-12-20T11:45:27.997Z,14.00
2022-12-20T11:48:25.167Z,18.13
2022-12-20T11:51:03.485Z,12.03
2022-12-20T11:53:37.624Z,17.20
2022-12-20T11:56:10.692Z,12.90
2022-12-20T11:58:49.405Z,9.13
2022-12-20T12:01:20.947Z,10.60
2022-12-20T12:04:02.105Z,10.40
2022-12-20T12:06:35.020Z,8.37
2022-12-20T12:09:14.643Z,8.27
2022-12-20T12:14:51.180Z,19.57
2022-12-20T12:17:26.046Z,14.40
2022-12-20T12:20:02.663Z,14.80
2022-12-20T12:22:35.379Z,16.13
2022-12-20T12:25:10.704Z,14.23
2022-12-20T12:27:40.108Z,14.23
2022-12-20T12:30:13.272Z,13.80
2022-12-20T12:32:46.078Z,10.43
2022-12-20T12:35:37.767Z,7.87
2022-12-20T12:38:24.233Z,8.70
2022-12-20T12:41:23.933Z,9.70
2022-12-20T12:43:54.237Z,8.43
2022-12-20T12:46:27.003Z,8.00
2022-12-20T12:49:00.334Z,10.70
2022-12-20T12:51:33.074Z,14.77
2022-12-20T12:54:18.688Z,15.10
2022-12-20T12:56:48.618Z,19.93
2022-12-20T12:59:41.567Z,13.40
2022-12-20T13:02:35.760Z,9.87
2022-12-20T13:05:32.143Z,8.80
2022-12-20T13:08:01.617Z,20.57
2022-12-20T13:11:00.294Z,7.23
2022-12-20T13:13:28.719Z,11.30
2022-12-20T13:16:12.278Z,9.90
2022-12-20T13:18:57.049Z,8.90
2022-12-20T13:21:33.634Z,7.77
2022-12-20T13:24:38.180Z,12.97
2022-12-20T13:27:28.349Z,46.23
2022-12-20T13:30:33.427Z,24.37
2022-12-20T13:33:23.971Z,8.17
2022-12-20T13:36:05.347Z,11.00
2022-12-20T13:39:04.960Z,9.60
2022-12-20T13:41:42.798Z,12.50
2022-12-20T13:44:29.856Z,9.53
2022-12-20T13:47:03.269Z,11.80
2022-12-20T13:49:37.736Z,12.90
2022-12-20T13:52:23.360Z,9.47
2022-12-20T13:54:55.552Z,13.97
2022-12-20T13:57:29.437Z,10.10
2022-12-20T14:00:07.077Z,13.63
2022-12-20T14:02:41.212Z,13.63
2022-12-20T14:05:18.324Z,12.57
2022-12-20T14:07:48.206Z,9.47
2022-12-20T14:10:23.911Z,13.67
2022-12-20T14:12:53.094Z,14.87
2022-12-20T14:15:33.746Z,16.30
2022-12-20T14:18:07.244Z,18.43
2022-12-20T14:20:38.157Z,14.40
2022-12-20T14:23:11.238Z,15.23
2022-12-20T14:25:44.796Z,13.93
2022-12-20T14:28:27.121Z,11.50
2022-12-20T14:30:58.370Z,14.20
2022-12-20T14:33:31.981Z,15.57
2022-12-20T14:36:09.728Z,12.77
2022-12-20T14:38:38.222Z,13.73
2022-12-20T14:41:06.290Z,16.07
2022-12-20T14:43:37.948Z,15.93
2022-12-20T14:46:22.410Z,12.07
2022-12-20T14:48:50.560Z,12.07
2022-12-20T14:51:22.471Z,12.10
2022-12-20T14:53:53.484Z,13.43
2022-12-20T14:56:31.353Z,14.40
2022-12-20T14:59:07.813Z,12.70
2022-12-20T15:01:43.438Z,18.60
2022-12-20T15:04:24.049Z,18.73
2022-12-20T15:06:53.431Z,18.00
2022-12-20T15:09:26.925Z,16.13
2022-12-20T15:11:56.753Z,15.93
2022-12-20T15:14:33.981Z,15.97
2022-12-20T15:17:04.829Z,17.80
2022-12-20T15:19:36.236Z,16.93
2022-12-20T15:22:07.477Z,14.60
2022-12-20T15:24:36.009Z,15.67
2022-12-20T15:27:04.006Z,14.00
2022-12-20T15:29:31.830Z,18.73
2022-12-20T15:32:09.254Z,16.60
2022-12-20T15:34:39.152Z,24.63
2022-12-20T15:37:11.369Z,17.10
2022-12-20T15:39:44.123Z,15.30
2022-12-20T15:42:17.063Z,24.60
2022-12-20T15:44:48.636Z,14.00
2022-12-20T15:47:18.484Z,14.00
2022-12-20T15:49:50.481Z,12.17
2022-12-20T15:52:24.487Z,16.43
2022-12-20T15:54:56.806Z,12.63
2022-12-20T15:57:24.776Z,14.90
2022-12-20T16:00:03.251Z,18.33
2022-12-20T16:02:40.825Z,20.20
2022-12-20T16:05:13.733Z,16.90
2022-12-20T16:07:41.746Z,9.13
2022-12-20T16:10:14.023Z,7.63
2022-12-20T16:12:42.995Z,8.03
2022-12-20T16:15:21.669Z,5.80
2022-12-20T16:17:55.272Z,11.53
2022-12-20T16:20:23.439Z,12.23
2022-12-20T16:22:51.507Z,22.63
2022-12-20T16:25:27.175Z,21.13
2022-12-20T16:27:55.981Z,16.47
2022-12-20T16:30:24.532Z,23.40
2022-12-20T16:32:54.418Z,25.33
2022-12-20T16:35:31.553Z,26.67
2022-12-20T16:38:01.414Z,24.70
2022-12-20T16:40:32.775Z,23.40
2022-12-20T16:43:01.724Z,21.63
2022-12-20T16:45:32.890Z,34.77
2022-12-20T16:48:02.597Z,33.37
2022-12-20T16:50:30.451Z,28.43
2022-12-20T16:52:58.313Z,27.33
2022-12-20T16:55:27.980Z,25.33
2022-12-20T16:57:56.689Z,18.73
2022-12-20T17:00:28.018Z,18.27
2022-12-20T17:02:59.275Z,14.27
2022-12-20T17:05:31.623Z,15.20
2022-12-20T17:07:59.858Z,51.07
2022-12-20T17:10:28.311Z,45.30
2022-12-20T17:12:56.301Z,22.30
2022-12-20T17:15:26.486Z,25.80
2022-12-20T17:17:55.244Z,25.80
2022-12-20T17:20:24.716Z,17.97
2022-12-20T17:22:56.149Z,16.50
2022-12-20T17:25:27.771Z,16.23
2022-12-20T17:27:56.651Z,18.57
2022-12-20T17:30:26.097Z,17.07
2022-12-20T17:32:55.248Z,23.17
2022-12-20T17:35:27.085Z,24.77
2022-12-20T17:37:57.559Z,23.57
2022-12-20T17:40:27.374Z,23.50
2022-12-20T17:42:56.318Z,15.33
2022-12-20T17:45:27.907Z,21.20
2022-12-20T17:47:56.375Z,18.87
2022-12-20T17:50:25.009Z,7.80
2022-12-20T17:52:54.354Z,9.13
2022-12-20T17:55:25.960Z,15.97
2022-12-20T17:57:55.078Z,9.80
2022-12-20T18:00:36.345Z,6.10
2022-12-20T18:03:06.961Z,8.00
2022-12-20T18:05:35.185Z,6.07
2022-12-20T18:08:03.360Z,8.80
2022-12-20T18:10:32.794Z,19.57
2022-12-20T18:13:00.643Z,21.30
2022-12-20T18:15:28.511Z,22.00
2022-12-20T18:17:56.377Z,21.73
2022-12-20T18:20:24.337Z,16.87
2022-12-20T18:22:52.242Z,14.80
2022-12-20T18:25:20.205Z,12.43
2022-12-20T18:27:49.403Z,8.80
2022-12-20T18:30:17.839Z,5.60
2022-12-20T18:32:45.817Z,5.07
2022-12-20T18:35:13.748Z,4.07
2022-12-20T18:37:41.679Z,4.33
2022-12-20T18:40:10.633Z,3.93
2022-12-20T18:42:38.484Z,4.30
2022-12-20T18:45:11.185Z,13.03
2022-12-20T18:47:39.239Z,32.67
2022-12-20T18:50:08.387Z,24.77
2022-12-20T18:52:38.658Z,19.00
2022-12-20T18:55:07.315Z,19.63
2022-12-20T18:57:35.202Z,18.80
2022-12-20T19:00:03.487Z,14.80
2022-12-20T19:02:32.827Z,12.13
2022-12-20T19:05:00.799Z,13.47
2022-12-20T19:07:28.685Z,9.63
2022-12-20T19:09:56.503Z,10.83
2022-12-20T19:12:24.410Z,7.33
2022-12-20T19:14:52.507Z,9.43
2022-12-20T19:17:20.451Z,5.97
2022-12-20T19:19:49.954Z,5.37
2022-12-20T19:24:58.856Z,7.23
2022-12-20T19:27:26.863Z,10.57
2022-12-20T19:29:55.130Z,7.83
2022-12-20T19:32:23.178Z,12.50
2022-12-20T19:34:51.113Z,20.13
2022-12-20T19:37:19.772Z,23.30
2022-12-20T19:39:47.639Z,23.73
2022-12-20T19:42:24.282Z,21.27
2022-12-20T19:44:52.943Z,16.10
2022-12-20T19:47:21.532Z,12.80
2022-12-20T19:49:49.500Z,14.13
2022-12-20T19:52:28.609Z,11.13
2022-12-20T19:54:57.138Z,15.90
2022-12-20T19:57:26.423Z,15.50
2022-12-20T19:59:56.219Z,24.07
2022-12-20T20:02:24.744Z,13.87
2022-12-20T20:04:52.932Z,9.27
2022-12-20T20:07:21.035Z,8.53
2022-12-20T20:09:49.183Z,6.67
2022-12-20T20:12:17.215Z,8.30
2022-12-20T20:14:46.791Z,5.93
2022-12-20T20:17:14.843Z,4.87
2022-12-20T20:19:42.843Z,4.60
2022-12-20T20:22:11.265Z,7.00
2022-12-20T20:24:39.274Z,4.37
2022-12-20T20:27:07.410Z,5.57
2022-12-20T20:29:35.461Z,4.07
2022-12-20T20:32:05.241Z,4.53
2022-12-20T20:34:33.181Z,4.20
2022-12-20T20:37:01.140Z,5.80
2022-12-20T20:39:29.115Z,5.17
2022-12-20T20:41:56.984Z,4.83
2022-12-20T20:44:24.869Z,4.97
2022-12-20T20:46:52.848Z,6.70
2022-12-20T20:49:22.079Z,18.17
2022-12-20T20:51:50.000Z,12.40
2022-12-20T20:54:18.085Z,11.97
2022-12-20T20:56:45.982Z,14.37
2022-12-20T20:59:17.896Z,13.93
2022-12-20T21:01:46.291Z,12.77
2022-12-20T21:04:14.250Z,14.93
2022-12-20T21:06:43.537Z,13.37
2022-12-20T21:09:11.995Z,23.67
2022-12-20T21:11:40.233Z,6.00
2022-12-20T21:14:08.177Z,10.53
2022-12-20T21:16:36.517Z,14.40
2022-12-20T21:19:05.593Z,8.50
2022-12-20T21:21:33.522Z,7.63
2022-12-20T21:24:03.106Z,6.20
2022-12-20T21:26:31.156Z,5.13
2022-12-20T21:28:59.597Z,4.73
2022-12-20T21:31:27.624Z,6.87
2022-12-20T21:33:56.671Z,7.90
2022-12-20T21:36:25.191Z,3.80
2022-12-20T21:38:55.443Z,5.60
2022-12-20T21:41:26.432Z,8.23
2022-12-20T21:43:57.717Z,5.37
2022-12-20T21:46:26.418Z,5.63
2022-12-20T21:48:55.358Z,5.90
2022-12-20T21:51:25.060Z,3.90
2022-12-20T21:53:54.628Z,6.77
2022-12-20T21:56:26.198Z,5.10
2022-12-20T21:58:55.135Z,4.70
2022-12-20T22:01:25.774Z,4.33
2022-12-20T22:03:55.265Z,11.03
2022-12-20T22:06:23.574Z,12.27
2022-12-20T22:08:52.187Z,7.50
2022-12-20T22:11:20.608Z,12.10
2022-12-20T22:13:51.195Z,5.50
2022-12-20T22:16:20.914Z,6.93
2022-12-20T22:18:50.529Z,6.10
2022-12-20T22:21:20.521Z,6.53
2022-12-20T22:23:49.813Z,6.87
2022-12-20T22:26:20.524Z,4.83
2022-12-20T22:28:52.420Z,6.97
2022-12-20T22:31:21.321Z,7.73
2022-12-20T22:33:50.373Z,7.10
2022-12-20T22:36:18.623Z,5.37
2022-12-20T22:38:46.976Z,4.27
2022-12-20T22:41:17.239Z,6.73
2022-12-20T22:43:46.527Z,3.83
2022-12-20T22:46:17.506Z,7.20
2022-12-20T22:48:49.222Z,4.97
2022-12-20T22:51:19.843Z,4.93
2022-12-20T22:53:49.533Z,9.67
2022-12-20T22:56:19.575Z,5.47
2022-12-20T22:58:47.538Z,6.23
2022-12-20T23:01:19.707Z,6.67
2022-12-20T23:03:48.978Z,6.03
2022-12-20T23:06:19.309Z,5.50
2022-12-20T23:08:47.725Z,3.83
2022-12-20T23:11:36.029Z,4.77
2022-12-20T23:14:22.551Z,5.50
2022-12-20T23:16:52.253Z,7.93
2022-12-20T23:19:20.289Z,4.50
2022-12-20T23:22:05.393Z,4.90
2022-12-20T23:24:33.275Z,4.60
2022-12-20T23:27:02.162Z,4.83
2022-12-20T23:29:30.846Z,8.90
2022-12-20T23:32:00.226Z,4.07
2022-12-20T23:34:28.418Z,4.93
2022-12-20T23:36:56.417Z,7.30
2022-12-20T23:39:25.267Z,4.60
2022-12-20T23:41:53.481Z,6.60
2022-12-20T23:44:21.642Z,6.97
2022-12-20T23:46:49.828Z,5.97
2022-12-20T23:49:19.549Z,6.30
2022-12-20T23:51:49.235Z,7.63
2022-12-20T23:54:19.535Z,8.40
2022-12-20T23:56:47.480Z,8.70
2022-12-20T23:59:16.546Z,9.07
